Time;durP1;ratioP1;P1;durP2;ratioP2;P2;SDS_P1;SDS_P2;PMS_P1;PMS_P2;Temp;Humidity;BMP_temperature;BMP_pressure;BME280_temperature;BME280_humidity;BME280_pressure;Samples;Min_cycle;Max_cycle;Signal;HPM_P1;HPM_P2
2021/09/13 00:02:07;;;;;;;3.50;2.40;;;;;;;14.35;100.00;96069.84;5058212;28;24479;-81
2021/09/13 00:04:33;;;;;;;3.83;2.47;;;;;;;14.27;100.00;96058.22;5036899;28;25040;-81
2021/09/13 00:06:58;;;;;;;3.25;2.30;;;;;;;14.36;100.00;96056.72;5037856;28;24491;-81
2021/09/13 00:09:24;;;;;;;3.97;2.33;;;;;;;14.33;100.00;96058.72;5052900;28;24500;-81
2021/09/13 00:11:50;;;;;;;5.97;2.20;;;;;;;14.31;100.00;96065.81;5052578;28;24427;-80
2021/09/13 00:14:16;;;;;;;5.15;2.20;;;;;;;14.34;100.00;96056.00;5052794;28;24850;-80
2021/09/13 00:16:41;;;;;;;3.17;2.20;;;;;;;14.32;100.00;96059.69;5037639;28;24396;-80
2021/09/13 00:19:07;;;;;;;5.45;2.28;;;;;;;14.39;100.00;96053.06;5037337;28;24396;-81
2021/09/13 00:21:32;;;;;;;4.60;2.90;;;;;;;14.35;100.00;96049.00;5037341;28;24918;-81
2021/09/13 00:23:57;;;;;;;5.50;2.70;;;;;;;14.35;100.00;96042.06;5052009;28;24477;-80
2021/09/13 00:26:23;;;;;;;5.10;2.60;;;;;;;14.53;100.00;96034.66;5036737;28;24403;-81
2021/09/13 00:28:48;;;;;;;3.10;2.37;;;;;;;14.51;100.00;96037.38;5036535;28;24411;-80
2021/09/13 00:31:13;;;;;;;4.60;2.60;;;;;;;14.40;100.00;96042.53;5052299;28;24499;-81
2021/09/13 00:33:39;;;;;;;4.00;2.33;;;;;;;14.19;100.00;96041.50;5051163;28;24527;-80
2021/09/13 00:36:06;;;;;;;4.00;2.57;;;;;;;14.15;100.00;96040.06;5039420;28;24436;-81
2021/09/13 00:38:31;;;;;;;3.30;2.15;;;;;;;14.09;100.00;96041.34;5018258;28;24404;-80
2021/09/13 00:40:56;;;;;;;2.90;1.80;;;;;;;14.06;100.00;96041.56;5036070;28;25064;-80
2021/09/13 00:43:22;;;;;;;3.93;2.20;;;;;;;13.96;100.00;96038.78;5034349;28;24474;-80
2021/09/13 00:45:47;;;;;;;3.22;2.13;;;;;;;13.94;100.00;96040.69;5017323;28;24880;-80
2021/09/13 00:48:13;;;;;;;4.70;2.20;;;;;;;13.94;100.00;96045.88;5017469;28;24415;-81
2021/09/13 00:50:38;;;;;;;3.40;2.10;;;;;;;13.97;100.00;96048.25;5035785;28;24424;-80
2021/09/13 00:53:04;;;;;;;3.78;2.47;;;;;;;13.96;100.00;96053.56;5033525;28;24424;-81
2021/09/13 00:55:29;;;;;;;3.28;2.40;;;;;;;13.91;100.00;96050.47;5034330;28;25230;-81
2021/09/13 00:57:55;;;;;;;3.22;2.05;;;;;;;13.87;100.00;96054.22;5035590;28;24768;-81
2021/09/13 01:00:21;;;;;;;4.70;2.10;;;;;;;13.92;100.00;96044.31;5017128;28;24408;-80
2021/09/13 01:02:47;;;;;;;3.60;2.23;;;;;;;13.93;100.00;96044.19;5033602;28;24415;-81
2021/09/13 01:05:12;;;;;;;4.70;2.13;;;;;;;13.93;100.00;96044.19;5034625;28;24411;-81
2021/09/13 01:07:38;;;;;;;3.60;2.40;;;;;;;13.95;100.00;96044.09;5029964;28;24503;-80
2021/09/13 01:10:04;;;;;;;3.08;2.00;;;;;;;13.97;100.00;96039.59;5014066;28;24403;-81
2021/09/13 01:12:30;;;;;;;4.70;2.53;;;;;;;14.36;100.00;96032.44;5013666;28;24968;-81
2021/09/13 01:14:55;;;;;;;5.00;2.03;;;;;;;14.49;100.00;96025.38;5030197;28;24452;-81
2021/09/13 01:17:21;;;;;;;3.60;2.03;;;;;;;14.35;100.00;96028.16;5012621;28;24393;-80
2021/09/13 01:19:46;;;;;;;9.37;2.40;;;;;;;14.05;100.00;96037.28;5013511;28;24411;-80
2021/09/13 01:22:13;;;;;;;5.53;2.00;;;;;;;13.95;100.00;96038.91;5029483;28;24443;-80
2021/09/13 01:24:38;;;;;;;3.80;2.33;;;;;;;13.97;100.00;96031.78;5029725;28;24423;-81
2021/09/13 01:27:09;;;;;;;3.40;2.05;;;;;;;14.06;100.00;96032.94;5029052;28;24405;-80
2021/09/13 01:29:35;;;;;;;5.40;1.52;;;;;;;13.96;100.00;96032.75;5029378;28;24511;-81
2021/09/13 01:32:01;;;;;;;4.50;2.00;;;;;;;13.81;100.00;96029.47;5028989;28;25064;-80
2021/09/13 01:34:26;;;;;;;3.17;2.00;;;;;;;13.84;100.00;96023.22;5028972;28;25024;-80
2021/09/13 01:36:52;;;;;;;2.90;1.93;;;;;;;13.93;100.00;96025.97;5028856;28;24491;-80
2021/09/13 01:39:18;;;;;;;3.53;2.00;;;;;;;13.80;100.00;96018.22;5029182;28;24827;-80
2021/09/13 01:41:44;;;;;;;3.27;2.03;;;;;;;13.81;100.00;96021.66;5012823;28;24858;-78
2021/09/13 01:44:10;;;;;;;2.67;1.80;;;;;;;14.04;100.00;96020.00;5028715;28;24479;-78
2021/09/13 01:46:37;;;;;;;2.60;1.90;;;;;;;14.15;100.00;96021.81;5027870;28;24408;-78
2021/09/13 01:49:05;;;;;;;2.17;1.80;;;;;;;13.96;100.00;96017.94;5029319;28;24412;-78
2021/09/13 01:51:30;;;;;;;3.42;2.05;;;;;;;13.89;100.00;96021.94;5028824;28;24436;-80
2021/09/13 01:53:55;;;;;;;3.57;2.13;;;;;;;13.88;100.00;96022.06;5028648;28;24452;-80
2021/09/13 01:56:21;;;;;;;4.33;2.10;;;;;;;13.83;100.00;96018.94;5013949;28;24424;-80
2021/09/13 01:58:46;;;;;;;4.37;2.13;;;;;;;13.83;100.00;96011.97;5028744;28;25025;-80
2021/09/13 02:01:11;;;;;;;4.30;2.40;;;;;;;13.73;100.00;96016.19;5013558;28;24612;-80
2021/09/13 02:03:37;;;;;;;2.57;2.00;;;;;;;13.76;100.00;96011.59;5013066;28;24408;-80
2021/09/13 02:06:02;;;;;;;3.13;1.70;;;;;;;13.84;100.00;96010.19;5013001;28;24400;-80
2021/09/13 02:08:27;;;;;;;3.10;2.07;;;;;;;13.90;100.00;96009.75;5028274;28;24954;-80
2021/09/13 02:10:52;;;;;;;2.43;2.10;;;;;;;13.94;100.00;96004.22;5028634;28;24867;-80
2021/09/13 02:13:18;;;;;;;2.10;1.90;;;;;;;13.94;100.00;96000.75;5028248;28;24491;-80
2021/09/13 02:15:43;;;;;;;3.53;2.00;;;;;;;13.92;100.00;96008.69;5027480;28;25083;-80
2021/09/13 02:18:08;;;;;;;2.60;1.77;;;;;;;13.94;100.00;95999.03;5028548;28;24501;-80
2021/09/13 02:20:34;;;;;;;2.60;1.70;;;;;;;13.96;100.00;96001.50;5028466;28;24448;-80
2021/09/13 02:22:59;;;;;;;3.33;1.87;;;;;;;13.96;100.00;95998.91;5013246;28;24500;-80
2021/09/13 02:25:25;;;;;;;4.43;1.90;;;;;;;13.89;100.00;95998.50;5027948;28;24415;-80
2021/09/13 02:27:50;;;;;;;3.13;1.92;;;;;;;13.78;100.00;96001.88;5013469;28;24418;-80
2021/09/13 02:30:15;;;;;;;4.83;2.10;;;;;;;13.70;100.00;96004.19;5027850;28;24424;-80
2021/09/13 02:32:41;;;;;;;2.43;2.10;;;;;;;13.52;100.00;96008.94;5028259;28;24500;-80
2021/09/13 02:35:07;;;;;;;11.55;2.20;;;;;;;13.35;100.00;96005.84;5012888;28;24428;-80
2021/09/13 02:37:35;;;;;;;3.33;1.83;;;;;;;13.31;100.00;95997.44;5027735;28;24495;-80
2021/09/13 02:40:02;;;;;;;2.63;2.00;;;;;;;13.42;100.00;95997.53;5012998;28;24799;-80
2021/09/13 02:42:28;;;;;;;5.88;2.00;;;;;;;13.56;100.00;95996.53;5011129;28;24428;-80
2021/09/13 02:44:53;;;;;;;3.50;1.87;;;;;;;13.52;100.00;95992.50;5027654;28;24447;-80
2021/09/13 02:47:18;;;;;;;12.03;2.23;;;;;;;13.39;100.00;95999.53;5027470;28;24759;-80
2021/09/13 02:49:43;;;;;;;2.37;1.70;;;;;;;13.36;100.00;95997.13;5012538;28;24436;-80
2021/09/13 02:52:09;;;;;;;13.10;2.20;;;;;;;13.26;100.00;96002.97;5018519;28;24603;-80
2021/09/13 02:54:34;;;;;;;4.13;2.00;;;;;;;13.21;100.00;96005.03;5021449;28;24488;-80
2021/09/13 02:56:59;;;;;;;4.70;2.07;;;;;;;13.27;100.00;96004.66;5021824;28;24416;-80
2021/09/13 02:59:25;;;;;;;6.73;1.77;;;;;;;13.42;100.00;95996.69;5038188;28;24474;-80
2021/09/13 03:01:50;;;;;;;3.03;1.97;;;;;;;13.53;100.00;95995.00;5027847;28;25012;-80
2021/09/13 03:04:15;;;;;;;6.80;2.17;;;;;;;13.56;100.00;96005.19;5018770;28;24514;-80
2021/09/13 03:06:41;;;;;;;4.43;2.30;;;;;;;13.43;100.00;96001.78;5033779;28;24498;-81
2021/09/13 03:09:06;;;;;;;4.07;2.00;;;;;;;13.31;100.00;96000.88;5019986;28;25040;-81
2021/09/13 03:11:31;;;;;;;3.23;2.10;;;;;;;13.25;100.00;95996.09;5033627;28;24508;-81
2021/09/13 03:13:57;;;;;;;4.65;2.17;;;;;;;13.20;100.00;95998.19;5018287;28;24511;-81
2021/09/13 03:16:22;;;;;;;3.70;2.30;;;;;;;13.20;100.00;95994.72;5020418;28;24516;-81
2021/09/13 03:18:48;;;;;;;3.07;1.93;;;;;;;13.26;100.00;96005.56;5036298;28;24420;-80
2021/09/13 03:21:13;;;;;;;3.07;1.70;;;;;;;13.29;100.00;96002.75;5017651;28;24397;-80
2021/09/13 03:23:38;;;;;;;2.80;1.65;;;;;;;13.26;100.00;95997.75;5018560;28;24409;-80
2021/09/13 03:26:04;;;;;;;7.23;2.00;;;;;;;13.24;100.00;95998.81;5033581;28;24440;-80
2021/09/13 03:28:29;;;;;;;6.53;1.60;;;;;;;13.24;100.00;95993.63;5018379;28;24411;-79
2021/09/13 03:30:54;;;;;;;2.63;1.67;;;;;;;13.29;100.00;95994.94;5017400;28;24428;-80
2021/09/13 03:33:20;;;;;;;2.25;1.80;;;;;;;13.32;100.00;95996.50;5023846;28;24427;-80
2021/09/13 03:35:45;;;;;;;3.13;1.67;;;;;;;13.28;100.00;95993.28;5030284;28;24432;-79
2021/09/13 03:38:10;;;;;;;1.90;1.57;;;;;;;13.26;100.00;95992.56;5037381;28;24487;-80
2021/09/13 03:40:36;;;;;;;4.55;1.65;;;;;;;13.29;100.00;95989.75;5035465;28;24412;-79
2021/09/13 03:43:01;;;;;;;9.40;1.60;;;;;;;13.29;100.00;95991.53;5035503;28;24474;-80
2021/09/13 03:45:26;;;;;;;2.27;1.70;;;;;;;13.41;100.00;95989.81;5052250;28;24467;-79
2021/09/13 03:47:52;;;;;;;2.87;1.70;;;;;;;13.32;100.00;95980.91;5037212;28;24964;-80
2021/09/13 03:50:17;;;;;;;6.07;1.80;;;;;;;13.32;100.00;95988.72;5036036;28;24945;-80
2021/09/13 03:52:42;;;;;;;3.00;1.40;;;;;;;13.43;100.00;95980.16;5037219;28;24502;-80
2021/09/13 03:55:08;;;;;;;3.63;1.90;;;;;;;13.50;100.00;95979.59;5018247;28;24991;-80
2021/09/13 03:57:34;;;;;;;1.92;1.70;;;;;;;13.34;100.00;95975.59;5035146;28;24404;-80
2021/09/13 03:59:59;;;;;;;2.57;1.57;;;;;;;13.19;100.00;95977.47;5051801;28;24426;-80
2021/09/13 04:02:24;;;;;;;3.30;1.50;;;;;;;13.15;100.00;95981.22;5034314;28;24423;-79
2021/09/13 04:04:51;;;;;;;2.22;1.80;;;;;;;13.05;100.00;95983.59;5034141;28;24507;-79
2021/09/13 04:07:25;;;;;;;5.63;1.70;;;;;;;13.06;100.00;95980.91;5034354;28;24459;-80
2021/09/13 04:09:57;;;;;;;3.10;1.77;;;;;;;13.07;100.00;95974.78;5016871;28;24408;-79
2021/09/13 04:12:22;;;;;;;2.20;1.90;;;;;;;13.08;100.00;95978.19;5034112;28;24411;-80
2021/09/13 04:14:48;;;;;;;2.47;1.67;;;;;;;13.06;100.00;95980.09;5017121;28;24428;-80
2021/09/13 04:17:13;;;;;;;2.83;2.00;;;;;;;13.12;100.00;95984.03;5028214;28;24536;-83
2021/09/13 04:19:38;;;;;;;2.63;1.80;;;;;;;13.08;100.00;95983.41;5019960;28;24771;-83
2021/09/13 04:22:04;;;;;;;3.30;1.80;;;;;;;13.14;100.00;95988.19;5038716;28;24414;-82
2021/09/13 04:24:29;;;;;;;2.17;1.90;;;;;;;13.17;100.00;95980.19;5035408;28;24411;-83
2021/09/13 04:26:55;;;;;;;2.20;1.93;;;;;;;13.14;100.00;95977.78;5029955;28;24451;-85
2021/09/13 04:29:22;;;;;;;6.22;1.90;;;;;;;13.14;100.00;95979.56;5031148;28;24826;-85
2021/09/13 04:31:47;;;;;;;3.95;2.00;;;;;;;13.12;100.00;95984.84;5015113;28;24503;-85
2021/09/13 04:34:13;;;;;;;7.80;2.00;;;;;;;12.99;100.00;95974.47;5031817;28;24471;-79
2021/09/13 04:36:38;;;;;;;6.45;1.92;;;;;;;12.97;100.00;95971.13;5017197;28;24408;-81
2021/09/13 04:39:04;;;;;;;2.97;1.80;;;;;;;13.01;100.00;95980.38;5034126;28;24412;-80
2021/09/13 04:41:29;;;;;;;4.20;1.70;;;;;;;13.03;100.00;95975.94;5016739;28;24411;-80
2021/09/13 04:43:54;;;;;;;3.43;1.87;;;;;;;13.14;100.00;95977.78;5037071;28;25064;-79
2021/09/13 04:46:20;;;;;;;5.10;1.70;;;;;;;13.08;100.00;95970.41;5033730;28;24414;-80
2021/09/13 04:48:45;;;;;;;4.07;1.83;;;;;;;12.97;100.00;95975.50;5032576;28;24551;-79
2021/09/13 04:51:10;;;;;;;4.47;1.90;;;;;;;12.78;100.00;95968.97;5034037;28;24452;-80
2021/09/13 04:53:36;;;;;;;3.00;1.90;;;;;;;12.80;100.00;95968.88;5040672;28;24519;-81
2021/09/13 04:56:01;;;;;;;3.00;1.50;;;;;;;12.82;100.00;95973.03;5006677;28;24435;-80
2021/09/13 04:58:27;;;;;;;4.27;1.47;;;;;;;12.91;100.00;95968.97;5029476;28;24556;-81
2021/09/13 05:00:52;;;;;;;2.00;1.30;;;;;;;12.61;100.00;95974.50;5033642;28;24753;-79
2021/09/13 05:03:17;;;;;;;1.73;1.23;;;;;;;12.50;100.00;95970.03;5032624;28;24404;-80
2021/09/13 05:05:42;;;;;;;3.17;1.60;;;;;;;12.27;100.00;95979.38;5031793;28;24404;-80
2021/09/13 05:08:08;;;;;;;1.90;1.50;;;;;;;12.25;100.00;95988.19;5025804;28;24408;-79
2021/09/13 05:10:33;;;;;;;2.00;1.33;;;;;;;12.31;100.00;95979.97;5028974;28;24532;-80
2021/09/13 05:12:58;;;;;;;1.70;1.30;;;;;;;12.34;100.00;95978.00;5028838;28;24519;-81
2021/09/13 05:15:24;;;;;;;2.07;1.70;;;;;;;12.44;100.00;95977.41;5012017;28;24447;-79
2021/09/13 05:17:49;;;;;;;1.95;1.50;;;;;;;12.47;100.00;95974.59;5028610;28;24934;-81
2021/09/13 05:20:15;;;;;;;2.55;1.60;;;;;;;12.47;100.00;95983.22;5023299;28;24460;-80
2021/09/13 05:22:41;;;;;;;7.68;1.65;;;;;;;12.43;100.00;95984.38;5009132;28;24508;-79
2021/09/13 05:25:07;;;;;;;1.52;1.08;;;;;;;12.34;100.00;95987.56;5015886;28;24436;-78
2021/09/13 05:27:32;;;;;;;1.30;1.20;;;;;;;12.33;100.00;95981.53;5032105;28;24420;-79
2021/09/13 05:29:58;;;;;;;1.37;1.10;;;;;;;12.30;100.00;95983.50;5032240;28;24404;-80
2021/09/13 05:32:23;;;;;;;1.40;1.30;;;;;;;12.32;100.00;95984.25;5032014;28;24451;-81
2021/09/13 05:34:49;;;;;;;3.25;1.20;;;;;;;12.40;100.00;95981.97;5030389;28;24571;-79
2021/09/13 05:37:15;;;;;;;0.93;0.82;;;;;;;12.35;100.00;95989.25;5031343;28;24476;-79
2021/09/13 05:39:40;;;;;;;1.70;1.00;;;;;;;12.31;100.00;95979.97;5034955;28;24494;-80
2021/09/13 05:42:06;;;;;;;2.03;1.60;;;;;;;12.29;100.00;95992.22;5035513;28;24438;-80
2021/09/13 05:44:31;;;;;;;3.42;1.65;;;;;;;12.31;100.00;95990.34;5034508;28;24486;-80
2021/09/13 05:46:57;;;;;;;3.23;1.73;;;;;;;12.35;100.00;95979.69;5033676;28;24435;-80
2021/09/13 05:49:22;;;;;;;1.52;1.40;;;;;;;12.46;100.00;95999.75;5019977;28;25057;-78
2021/09/13 05:51:51;;;;;;;2.17;1.33;;;;;;;12.40;100.00;95992.34;5037393;28;24443;-79
2021/09/13 05:54:25;;;;;;;3.37;1.97;;;;;;;12.40;100.00;95999.31;5046992;28;24488;-81
2021/09/13 05:56:54;;;;;;;2.72;1.90;;;;;;;12.46;100.00;96001.50;5033736;28;24432;-81
2021/09/13 05:59:20;;;;;;;2.00;1.60;;;;;;;12.52;100.00;95998.50;5011864;28;24456;-80
2021/09/13 06:01:47;;;;;;;1.70;1.40;;;;;;;12.68;100.00;95995.69;5030185;28;24435;-81
2021/09/13 06:04:13;;;;;;;1.27;1.17;;;;;;;12.73;100.00;95997.06;5035825;28;24419;-81
2021/09/13 06:06:39;;;;;;;2.15;1.30;;;;;;;12.89;100.00;95994.25;5035864;28;24427;-81
2021/09/13 06:09:04;;;;;;;2.08;1.50;;;;;;;12.95;100.00;95987.81;5028460;28;25005;-75
2021/09/13 06:11:30;;;;;;;3.93;1.80;;;;;;;13.02;100.00;95995.06;5027909;28;24408;-79
2021/09/13 06:13:55;;;;;;;2.47;1.57;;;;;;;13.20;100.00;96005.13;5029506;28;24459;-81
2021/09/13 06:16:21;;;;;;;4.20;1.90;;;;;;;13.12;100.00;96003.06;5020117;28;24835;-79
2021/09/13 06:18:47;;;;;;;2.35;1.73;;;;;;;13.16;100.00;96003.66;4998737;28;24424;-80
2021/09/13 06:21:12;;;;;;;2.40;1.90;;;;;;;13.20;100.00;96008.56;5050153;28;24423;-79
2021/09/13 06:23:37;;;;;;;6.65;1.90;;;;;;;13.28;100.00;96010.69;5034860;28;24487;-80
2021/09/13 06:26:03;;;;;;;2.20;2.00;;;;;;;13.30;100.00;96004.41;5032212;28;24775;-80
2021/09/13 06:28:28;;;;;;;3.97;2.20;;;;;;;13.50;100.00;96013.44;5034174;28;24439;-80
2021/09/13 06:30:54;;;;;;;2.80;2.05;;;;;;;13.62;100.00;96006.53;5032728;28;24416;-79
2021/09/13 06:33:20;;;;;;;2.13;1.92;;;;;;;13.66;100.00;96013.16;5033584;28;24402;-79
2021/09/13 06:35:45;;;;;;;3.07;2.13;;;;;;;13.80;100.00;96005.22;5031575;28;24440;-80
2021/09/13 06:38:10;;;;;;;2.33;2.00;;;;;;;14.13;100.00;96008.94;5032382;28;24413;-80
2021/09/13 06:40:36;;;;;;;2.65;1.90;;;;;;;14.22;100.00;96002.19;5033601;28;24503;-80
2021/09/13 06:43:01;;;;;;;3.03;2.13;;;;;;;14.35;100.00;96005.56;5041892;28;24418;-79
2021/09/13 06:45:27;;;;;;;3.47;2.00;;;;;;;14.61;100.00;96006.28;5052931;28;24423;-80
2021/09/13 06:47:52;;;;;;;2.37;2.07;;;;;;;14.76;100.00;96009.50;5053245;28;24487;-80
2021/09/13 06:50:25;;;;;;;3.47;2.20;;;;;;;15.04;100.00;96010.00;5053320;28;24439;-79
2021/09/13 06:52:52;;;;;;;4.32;2.30;;;;;;;15.21;100.00;96002.53;5049847;28;24431;-77
2021/09/13 06:57:43;;;;;;;3.83;2.20;;;;;;;15.49;100.00;96006.41;5112656;27;21082;-77
2021/09/13 07:00:12;;;;;;;7.28;2.45;;;;;;;15.38;100.00;96009.03;5120203;28;24818;-80
2021/09/13 07:04:58;;;;;;;2.92;2.20;;;;;;;15.72;100.00;96006.41;5085636;27;76122;-79
2021/09/13 07:07:25;;;;;;;2.73;2.07;;;;;;;15.76;100.00;96009.59;5050958;28;24419;-79
2021/09/13 07:09:51;;;;;;;2.83;2.22;;;;;;;16.04;100.00;96011.66;5053260;28;25012;-80
2021/09/13 07:12:19;;;;;;;3.28;2.30;;;;;;;15.81;100.00;96010.06;5051010;28;24436;-80
2021/09/13 07:14:46;;;;;;;4.47;2.37;;;;;;;15.67;100.00;96012.00;5035166;28;24463;-80
2021/09/13 07:17:12;;;;;;;3.60;2.20;;;;;;;15.63;100.00;96023.59;5034418;28;24465;-80
2021/09/13 07:19:39;;;;;;;4.87;2.23;;;;;;;15.48;100.00;96014.38;5034414;28;24440;-80
2021/09/13 07:22:07;;;;;;;3.83;2.35;;;;;;;15.55;100.00;96020.78;5034262;28;24842;-80
2021/09/13 07:24:34;;;;;;;3.05;2.20;;;;;;;15.65;100.00;96020.88;5033183;28;24463;-80
2021/09/13 07:27:00;;;;;;;2.80;2.30;;;;;;;15.74;100.00;96028.00;5035203;28;24430;-78
2021/09/13 07:29:27;;;;;;;4.60;2.45;;;;;;;15.89;100.00;96021.56;5030699;28;24436;-78
2021/09/13 07:31:53;;;;;;;3.47;2.35;;;;;;;15.93;100.00;96027.38;5031302;28;24431;-79
2021/09/13 07:34:20;;;;;;;3.50;2.50;;;;;;;16.14;100.00;96027.44;5030594;28;24439;-78
2021/09/13 07:36:46;;;;;;;2.38;2.15;;;;;;;16.55;100.00;96023.22;5029002;28;24791;-78
2021/09/13 07:39:14;;;;;;;3.80;2.60;;;;;;;17.02;98.72;96021.06;5028019;28;24412;-78
2021/09/13 07:41:40;;;;;;;2.83;2.30;;;;;;;17.46;99.06;96027.72;5028694;28;24482;-77
2021/09/13 07:44:07;;;;;;;3.40;2.43;;;;;;;17.83;92.54;96029.81;5028058;28;24455;-77
2021/09/13 07:46:33;;;;;;;4.55;2.90;;;;;;;17.67;91.89;96030.28;5027662;28;24443;-76
2021/09/13 07:49:00;;;;;;;3.22;2.20;;;;;;;17.66;92.88;96037.31;5028049;28;24423;-75
2021/09/13 07:51:26;;;;;;;3.95;2.78;;;;;;;18.17;92.97;96037.31;5027822;28;24993;-78
2021/09/13 07:53:53;;;;;;;4.88;2.95;;;;;;;18.47;86.67;96034.59;5028904;28;25175;-77
2021/09/13 07:56:21;;;;;;;6.63;2.78;;;;;;;18.41;89.37;96029.88;5041802;28;24440;-76
2021/09/13 07:58:47;;;;;;;4.65;2.58;;;;;;;18.63;86.89;96029.59;5047420;28;24416;-76
2021/09/13 08:01:14;;;;;;;3.83;2.53;;;;;;;18.40;84.88;96030.84;5047476;28;24422;-76
2021/09/13 08:03:40;;;;;;;2.97;2.40;;;;;;;18.64;86.46;96027.78;5057370;28;24992;-76
2021/09/13 08:06:08;;;;;;;3.50;2.58;;;;;;;19.17;86.54;96029.09;5066353;28;24415;-76
2021/09/13 08:08:35;;;;;;;4.45;2.60;;;;;;;19.18;82.38;96028.97;5066595;28;24969;-75
2021/09/13 08:11:01;;;;;;;5.57;2.42;;;;;;;19.28;80.91;96029.78;5067049;28;24422;-77
2021/09/13 08:13:29;;;;;;;3.50;2.20;;;;;;;19.63;80.68;96038.78;5066329;28;24450;-75
2021/09/13 08:15:56;;;;;;;2.87;2.23;;;;;;;20.02;78.84;96031.53;5055292;28;24422;-77
2021/09/13 08:18:23;;;;;;;2.53;2.10;;;;;;;19.51;78.46;96040.75;5053976;28;24423;-76
2021/09/13 08:20:49;;;;;;;3.28;2.33;;;;;;;19.52;79.39;96041.56;5054482;28;24419;-80
2021/09/13 08:23:15;;;;;;;4.00;2.22;;;;;;;19.48;80.04;96035.78;5056444;28;24458;-79
2021/09/13 08:25:42;;;;;;;5.35;2.38;;;;;;;19.48;80.43;96042.81;5056579;28;24431;-79
2021/09/13 08:28:12;;;;;;;2.55;2.28;;;;;;;19.61;79.78;96042.47;5056395;28;24426;-79
2021/09/13 08:30:41;;;;;;;3.72;2.30;;;;;;;19.47;80.78;96043.81;5056617;28;24447;-78
2021/09/13 08:33:08;;;;;;;3.00;2.20;;;;;;;19.56;80.04;96038.50;5056198;28;24438;-79
2021/09/13 08:35:35;;;;;;;3.25;2.40;;;;;;;19.47;80.39;96044.63;5056342;28;24454;-77
2021/09/13 08:38:01;;;;;;;4.50;2.13;;;;;;;19.62;79.79;96038.91;5056096;28;24415;-79
2021/09/13 08:40:28;;;;;;;3.03;2.00;;;;;;;19.79;80.08;96038.13;5055876;28;24427;-78
2021/09/13 08:42:55;;;;;;;3.80;1.83;;;;;;;20.13;77.94;96048.84;5055774;28;24430;-78
2021/09/13 08:45:26;;;;;;;4.07;2.60;;;;;;;20.33;76.87;96057.47;5055422;28;24525;-79
2021/09/13 08:48:03;;;;;;;3.90;2.10;;;;;;;20.20;77.34;96060.44;5055708;28;24534;-78
2021/09/13 08:50:38;;;;;;;4.90;2.30;;;;;;;20.25;76.66;96055.59;5058087;28;24502;-80
2021/09/13 08:53:06;;;;;;;3.40;2.22;;;;;;;20.60;77.26;96055.75;5064359;28;24804;-78
2021/09/13 08:55:33;;;;;;;3.25;2.30;;;;;;;20.81;75.30;96060.72;5057036;28;24818;-79
2021/09/13 08:57:59;;;;;;;4.30;2.67;;;;;;;20.73;74.57;96061.47;5042619;28;24427;-77
2021/09/13 09:00:26;;;;;;;5.43;2.40;;;;;;;20.68;74.56;96061.09;5039096;28;24415;-78
2021/09/13 09:02:55;;;;;;;5.93;2.70;;;;;;;20.74;74.71;96063.13;5038096;28;24419;-79
2021/09/13 09:05:22;;;;;;;3.72;2.30;;;;;;;20.48;75.09;96069.13;5037459;28;24501;-77
2021/09/13 09:07:50;;;;;;;3.30;2.35;;;;;;;20.46;75.68;96068.44;5037730;28;24435;-79
2021/09/13 09:10:23;;;;;;;6.23;2.50;;;;;;;20.45;76.41;96071.22;5037756;28;24482;-79
2021/09/13 09:12:57;;;;;;;3.85;2.10;;;;;;;20.42;76.83;96061.81;5036904;28;24960;-78
2021/09/13 09:15:24;;;;;;;2.35;2.05;;;;;;;20.54;76.06;96058.03;5034463;28;24432;-77
2021/09/13 09:17:55;;;;;;;3.03;2.25;;;;;;;20.76;75.38;96053.25;5033807;28;24966;-78
2021/09/13 09:20:22;;;;;;;3.13;2.42;;;;;;;20.75;74.36;96056.88;5033698;28;24821;-78
2021/09/13 09:23:00;;;;;;;5.20;2.57;;;;;;;20.84;74.85;96050.72;5034390;28;24878;-78
2021/09/13 09:25:28;;;;;;;3.55;2.10;;;;;;;21.36;72.94;96052.53;5046927;28;24463;-78
2021/09/13 09:27:56;;;;;;;3.88;2.33;;;;;;;21.48;70.78;96049.50;5058444;28;24434;-76
2021/09/13 09:30:23;;;;;;;3.77;2.47;;;;;;;21.69;72.13;96050.91;5053595;28;24419;-78
2021/09/13 09:33:06;;;;;;;4.37;2.30;;;;;;;21.66;70.61;96054.69;5054239;28;24980;-78
2021/09/13 09:35:41;;;;;;;5.38;2.55;;;;;;;21.70;70.77;96055.22;5054970;28;24473;-78
2021/09/13 09:38:26;;;;;;;2.93;2.60;;;;;;;21.88;71.07;96060.41;5056174;28;24466;-78
2021/09/13 09:40:59;;;;;;;3.60;2.38;;;;;;;21.93;70.52;96050.19;5055121;28;24419;-77
2021/09/13 09:43:26;;;;;;;4.65;2.20;;;;;;;21.81;71.72;96065.47;5054949;28;24420;-78
2021/09/13 09:45:52;;;;;;;7.28;2.35;;;;;;;21.72;71.83;96056.69;5054581;28;24423;-78
2021/09/13 09:48:28;;;;;;;6.45;2.50;;;;;;;21.81;70.29;96059.38;5055609;28;24423;-79
2021/09/13 09:50:54;;;;;;;4.17;2.63;;;;;;;21.42;71.93;96052.75;5054397;28;24960;-79
2021/09/13 09:53:21;;;;;;;3.88;2.42;;;;;;;22.13;72.82;96059.47;5054368;28;24431;-78
2021/09/13 09:55:52;;;;;;;3.58;2.75;;;;;;;22.32;70.28;96058.41;5053321;28;25034;-79
2021/09/13 09:58:18;;;;;;;4.32;3.30;;;;;;;23.05;69.33;96056.81;5054743;28;24473;-79
2021/09/13 10:00:46;;;;;;;3.60;2.83;;;;;;;23.31;68.06;96053.97;5054294;28;24431;-78
2021/09/13 10:03:29;;;;;;;4.83;3.23;;;;;;;23.24;65.66;96042.44;5053926;28;24424;-79
2021/09/13 10:05:56;;;;;;;6.00;3.42;;;;;;;23.23;65.67;96046.06;5054016;28;24419;-78
2021/09/13 10:08:23;;;;;;;3.60;2.80;;;;;;;23.71;67.05;96047.78;5053986;28;24956;-79
2021/09/13 10:10:50;;;;;;;4.65;3.05;;;;;;;23.76;64.83;96048.09;5053950;28;24419;-79
2021/09/13 10:13:16;;;;;;;5.47;3.53;;;;;;;23.61;65.01;96033.91;5053398;28;24435;-79
2021/09/13 10:15:43;;;;;;;5.90;2.95;;;;;;;23.73;66.74;96032.59;5053052;28;24426;-78
2021/09/13 10:18:10;;;;;;;5.45;3.28;;;;;;;23.78;63.97;96024.94;5053702;28;24426;-81
2021/09/13 10:20:38;;;;;;;4.38;2.78;;;;;;;23.46;64.00;96033.78;5053482;28;24789;-79
2021/09/13 10:23:05;;;;;;;4.97;3.00;;;;;;;24.12;68.74;96027.25;5053535;28;24477;-79
2021/09/13 10:25:32;;;;;;;5.30;3.28;;;;;;;24.08;65.60;96023.31;5052339;28;24455;-79
2021/09/13 10:28:04;;;;;;;4.60;2.80;;;;;;;23.30;63.94;96023.25;5052859;28;24423;-79
2021/09/13 10:30:30;;;;;;;3.23;2.80;;;;;;;23.37;67.16;96017.13;5053172;28;24473;-77
2021/09/13 10:33:11;;;;;;;4.47;3.00;;;;;;;23.59;65.67;96020.88;5052493;28;24526;-79
2021/09/13 10:35:55;;;;;;;4.22;3.08;;;;;;;23.87;62.96;96015.16;5052446;28;24422;-78
2021/09/13 10:38:41;;;;;;;3.85;3.15;;;;;;;22.90;66.03;96011.75;5052497;28;24419;-79
2021/09/13 10:41:07;;;;;;;4.40;2.85;;;;;;;22.86;66.96;96015.72;5052578;28;24430;-79
2021/09/13 10:43:34;;;;;;;5.47;2.95;;;;;;;22.36;67.83;96021.94;5052277;28;25004;-78
2021/09/13 10:46:00;;;;;;;7.70;3.38;;;;;;;22.42;73.98;96014.22;5052567;28;24440;-78
2021/09/13 10:48:27;;;;;;;4.00;3.60;;;;;;;23.15;69.09;96008.09;5053267;28;24798;-78
2021/09/13 10:50:56;;;;;;;5.17;3.40;;;;;;;23.32;70.17;96008.88;5053171;28;24423;-78
2021/09/13 10:53:35;;;;;;;12.38;3.40;;;;;;;23.24;64.94;96008.91;5052402;28;24435;-80
2021/09/13 10:56:05;;;;;;;2.90;2.70;;;;;;;23.40;64.47;96000.94;5051502;28;24423;-78
2021/09/13 10:58:42;;;;;;;4.25;3.05;;;;;;;23.33;68.08;95999.97;5052624;28;24426;-79
2021/09/13 11:01:10;;;;;;;4.43;3.47;;;;;;;23.27;68.33;95999.81;5053177;28;24423;-78
2021/09/13 11:03:53;;;;;;;3.80;2.83;;;;;;;22.78;64.52;96003.34;5052263;28;24458;-79
2021/09/13 11:06:38;;;;;;;3.65;2.78;;;;;;;22.68;67.92;96000.03;5049504;28;24446;-78
2021/09/13 11:09:10;;;;;;;3.45;2.75;;;;;;;22.89;67.75;95994.25;5052509;28;24451;-79
2021/09/13 11:11:40;;;;;;;3.73;3.23;;;;;;;23.22;69.09;95992.41;5051513;28;24430;-79
2021/09/13 11:14:09;;;;;;;3.90;3.38;;;;;;;23.38;68.03;95997.63;5051846;28;24519;-78
2021/09/13 11:16:38;;;;;;;7.28;3.35;;;;;;;22.91;64.33;95986.97;5053052;28;24427;-78
2021/09/13 11:19:10;;;;;;;5.53;3.20;;;;;;;22.92;68.46;95978.09;5052208;28;24418;-79
2021/09/13 11:21:41;;;;;;;3.17;2.55;;;;;;;23.19;66.18;95976.88;5052818;28;24514;-79
2021/09/13 11:24:09;;;;;;;3.50;3.17;;;;;;;23.69;68.16;95983.66;5049230;28;24492;-79
2021/09/13 11:26:40;;;;;;;3.35;2.78;;;;;;;23.41;63.87;95980.63;5048533;28;24438;-78
2021/09/13 11:29:09;;;;;;;44.10;17.55;;;;;;;23.40;64.67;95979.78;5052546;28;24425;-79
2021/09/13 11:31:37;;;;;;;7.38;4.63;;;;;;;23.33;63.03;95981.47;5052900;28;24415;-79